Time;durP1;ratioP1;P1;durP2;ratioP2;P2;SDS_P1;SDS_P2;PMS_P1;PMS_P2;Temp;Humidity;BMP_temperature;BMP_pressure;BME280_temperature;BME280_humidity;BME280_pressure;Samples;Min_cycle;Max_cycle;Signal;HPM_P1;HPM_P2
2022/12/25 00:02:20;;;;;;;58.10;39.58;;;;;;;3.34;100.00;99674.86;1765432;78;20979;-76
2022/12/25 00:04:47;;;;;;;51.13;36.55;;;;;;;3.35;100.00;99677.83;1801364;78;21048;-76
2022/12/25 00:07:14;;;;;;;54.57;36.57;;;;;;;3.34;100.00;99685.48;1806902;78;20991;-75
2022/12/25 00:09:40;;;;;;;58.10;40.03;;;;;;;3.37;100.00;99685.07;1796002;79;20953;-75
2022/12/25 00:12:07;;;;;;;51.95;36.42;;;;;;;3.38;100.00;99685.38;1807361;79;21059;-75
2022/12/25 00:14:34;;;;;;;50.27;35.97;;;;;;;3.44;100.00;99689.08;1797758;79;21043;-74
2022/12/25 00:17:00;;;;;;;59.48;37.53;;;;;;;3.45;100.00;99688.84;1806018;79;21109;-74
2022/12/25 00:19:27;;;;;;;53.28;37.45;;;;;;;3.45;100.00;99695.49;1791767;79;21033;-77
2022/12/25 00:21:53;;;;;;;54.75;37.83;;;;;;;3.40;100.00;99701.97;1795415;78;20972;-76
2022/12/25 00:24:19;;;;;;;62.00;40.30;;;;;;;3.41;100.00;99709.40;1793702;78;21064;-77
2022/12/25 00:26:46;;;;;;;58.60;39.38;;;;;;;3.39;100.00;99714.94;1796243;78;21540;-77
2022/12/25 00:29:13;;;;;;;55.17;38.40;;;;;;;3.36;100.00;99713.99;1794094;78;21122;-77
2022/12/25 00:31:42;;;;;;;57.53;40.95;;;;;;;3.37;100.00;99710.32;1794003;78;21026;-80
2022/12/25 00:34:08;;;;;;;51.02;34.80;;;;;;;3.39;100.00;99714.12;1797842;78;20963;-78
2022/12/25 00:36:35;;;;;;;53.73;36.68;;;;;;;3.40;100.00;99711.27;1792901;78;21025;-76
2022/12/25 00:39:02;;;;;;;51.00;36.68;;;;;;;3.29;100.00;99707.05;1792627;80;21070;-75
2022/12/25 00:44:13;;;;;;;50.40;34.90;;;;;;;3.17;100.00;99712.13;1792708;80;21019;-78
2022/12/25 00:46:40;;;;;;;52.85;36.90;;;;;;;3.16;100.00;99711.02;1792671;80;20960;-77
2022/12/25 00:49:08;;;;;;;52.83;35.95;;;;;;;3.22;100.00;99712.84;1800944;78;20960;-77
2022/12/25 00:51:37;;;;;;;38.90;30.08;;;;;;;3.23;100.00;99716.64;1822125;78;21024;-78
2022/12/25 00:54:03;;;;;;;49.03;34.50;;;;;;;3.29;100.00;99717.17;1825115;78;21778;-79
2022/12/25 00:56:30;;;;;;;44.67;32.05;;;;;;;3.32;100.00;99707.95;1823694;78;21044;-78
2022/12/25 00:58:56;;;;;;;50.63;35.00;;;;;;;3.29;100.00;99709.20;1825106;78;20948;-79
2022/12/25 01:01:23;;;;;;;43.98;32.67;;;;;;;3.27;100.00;99712.55;1805951;78;21005;-79
2022/12/25 01:03:49;;;;;;;41.68;32.42;;;;;;;3.27;100.00;99714.39;1824482;78;21043;-78
2022/12/25 01:06:16;;;;;;;39.40;30.25;;;;;;;3.25;100.00;99717.78;1825149;78;21505;-76
2022/12/25 01:10:21;;;;;;;36.00;29.40;;;;;;;3.21;100.00;99711.23;1813849;78;20953;-77
2022/12/25 01:11:11;;;;;;;35.52;28.45;;;;;;;3.13;100.00;99710.07;1799498;78;20963;-78
2022/12/25 01:13:37;;;;;;;36.53;30.08;;;;;;;3.07;100.00;99711.69;1825508;78;21023;-75
2022/12/25 01:16:07;;;;;;;37.53;30.32;;;;;;;3.07;100.00;99709.85;1804454;78;21030;-74
2022/12/25 01:18:35;;;;;;;36.65;30.40;;;;;;;3.05;100.00;99709.25;1796325;78;21063;-77
2022/12/25 01:21:11;;;;;;;39.83;31.12;;;;;;;3.02;100.00;99716.28;1786239;78;21552;-76
2022/12/25 01:23:37;;;;;;;36.20;27.70;;;;;;;3.09;100.00;99724.27;1800086;78;21552;-76
2022/12/25 01:26:05;;;;;;;35.63;28.20;;;;;;;3.12;100.00;99721.20;1799724;79;21031;-78
2022/12/25 01:28:32;;;;;;;36.65;28.30;;;;;;;3.16;100.00;99725.13;1781450;78;21029;-78
2022/12/25 01:30:59;;;;;;;34.67;28.00;;;;;;;3.24;100.00;99729.42;1780997;78;21090;-77
2022/12/25 01:33:27;;;;;;;34.65;25.80;;;;;;;3.24;100.00;99729.42;1804932;79;21007;-78
2022/12/25 01:35:53;;;;;;;32.38;28.38;;;;;;;3.19;100.00;99727.88;1804772;78;20976;-78
2022/12/25 01:38:20;;;;;;;33.28;26.70;;;;;;;3.08;100.00;99730.60;1776076;80;21069;-77
2022/12/25 01:40:46;;;;;;;31.80;24.63;;;;;;;3.00;100.00;99722.32;1800593;78;21095;-78
2022/12/25 01:43:29;;;;;;;36.08;27.93;;;;;;;2.96;100.00;99729.56;1807718;79;21774;-77
2022/12/25 01:45:56;;;;;;;36.28;27.85;;;;;;;2.89;100.00;99724.72;1807742;79;21003;-77
2022/12/25 01:48:30;;;;;;;32.30;26.30;;;;;;;2.87;100.00;99725.45;1774842;80;21046;-77
2022/12/25 01:51:03;;;;;;;30.65;25.25;;;;;;;2.90;100.00;99725.03;1788281;79;20968;-77
2022/12/25 01:53:30;;;;;;;26.93;23.18;;;;;;;2.93;100.00;99728.61;1798361;79;21082;-76
2022/12/25 01:56:02;;;;;;;31.73;24.75;;;;;;;2.88;100.00;99734.52;1777119;79;21772;-78
2022/12/25 01:58:29;;;;;;;30.75;25.10;;;;;;;2.88;100.00;99734.52;1775844;79;21093;-76
2022/12/25 02:00:57;;;;;;;33.05;24.82;;;;;;;2.84;100.00;99728.48;1807043;78;20973;-77
2022/12/25 02:03:23;;;;;;;26.60;22.15;;;;;;;2.86;100.00;99733.09;1800115;79;20963;-76
2022/12/25 02:05:50;;;;;;;27.37;23.02;;;;;;;2.88;100.00;99728.39;1783917;78;21798;-76
2022/12/25 02:08:19;;;;;;;26.15;22.20;;;;;;;2.89;100.00;99726.87;1775972;80;21114;-76
2022/12/25 02:10:46;;;;;;;28.83;23.22;;;;;;;2.93;100.00;99728.61;1783883;78;20944;-76
2022/12/25 02:13:15;;;;;;;29.55;23.22;;;;;;;2.96;100.00;99731.71;1782008;78;21515;-77
2022/12/25 02:16:08;;;;;;;26.35;21.90;;;;;;;3.01;100.00;99731.94;1778287;79;20932;-76
2022/12/25 02:18:43;;;;;;;28.10;22.42;;;;;;;3.03;100.00;99730.38;1763327;79;21631;-76
2022/12/25 02:21:24;;;;;;;26.05;22.25;;;;;;;2.97;100.00;99735.19;1780484;79;21159;-77
2022/12/25 02:24:14;;;;;;;26.05;20.35;;;;;;;2.95;100.00;99739.36;1767925;79;21039;-78
2022/12/25 02:27:14;;;;;;;27.65;23.73;;;;;;;2.99;100.00;99745.91;1753705;80;21016;-77
2022/12/25 02:29:55;;;;;;;30.97;24.12;;;;;;;2.99;100.00;99745.91;1782916;79;21066;-77
2022/12/25 02:32:45;;;;;;;26.75;21.15;;;;;;;3.05;100.00;99748.28;1795300;78;21071;-76
2022/12/25 02:35:21;;;;;;;27.95;21.93;;;;;;;3.09;100.00;99757.48;1800892;78;21925;-76
2022/12/25 02:38:07;;;;;;;26.97;22.37;;;;;;;3.04;100.00;99757.27;1805684;79;21007;-77
2022/12/25 02:40:43;;;;;;;25.97;21.35;;;;;;;3.04;100.00;99757.27;1807139;79;21000;-76
2022/12/25 03:11:53;;;;;;;30.05;22.25;;;;;;;2.94;100.00;99783.38;1796236;79;20989;-77
2022/12/25 03:17:04;;;;;;;28.65;22.13;;;;;;;2.94;100.00;99794.83;1789904;79;21069;-77
2022/12/25 03:27:59;;;;;;;32.90;23.70;;;;;;;2.89;100.00;99794.60;1800469;78;21044;-76
2022/12/25 03:35:21;;;;;;;28.62;22.00;;;;;;;2.85;100.00;99798.67;1746632;78;21053;-76
2022/12/25 03:36:27;;;;;;;31.70;21.35;;;;;;;2.84;100.00;99808.16;1791299;78;20996;-77
2022/12/25 04:37:55;;;;;;;24.75;17.20;;;;;;;2.54;100.00;99856.19;1791758;79;21896;-75
2022/12/25 04:40:22;;;;;;;21.70;15.98;;;;;;;2.54;100.00;99846.89;1776019;80;21239;-75
2022/12/25 04:42:51;;;;;;;22.15;17.10;;;;;;;2.54;100.00;99854.86;1794454;79;21567;-77
2022/12/25 04:45:18;;;;;;;23.40;18.40;;;;;;;2.56;100.00;99856.83;1802855;78;21392;-76
2022/12/25 04:47:44;;;;;;;22.90;18.65;;;;;;;2.60;100.00;99865.22;1790724;79;21015;-77
2022/12/25 04:50:11;;;;;;;24.82;16.95;;;;;;;2.56;100.00;99862.13;1800050;79;21386;-76
2022/12/25 04:52:38;;;;;;;22.32;17.52;;;;;;;2.53;100.00;99865.69;1769819;79;21203;-77
2022/12/25 04:55:05;;;;;;;24.37;17.42;;;;;;;2.50;100.00;99869.53;1799476;79;21022;-76
2022/12/25 04:57:32;;;;;;;24.75;18.95;;;;;;;2.50;100.00;99873.52;1776756;79;21027;-77
2022/12/25 04:59:59;;;;;;;21.23;15.72;;;;;;;2.48;100.00;99876.89;1793605;78;21604;-76
2022/12/25 05:02:25;;;;;;;23.22;17.07;;;;;;;2.50;100.00;99880.16;1789964;78;21041;-76
2022/12/25 05:04:52;;;;;;;22.07;18.40;;;;;;;2.54;100.00;99881.94;1798772;79;21845;-76
2022/12/25 05:07:18;;;;;;;22.45;17.27;;;;;;;2.57;100.00;99882.87;1781700;79;21631;-74
2022/12/25 05:09:45;;;;;;;23.18;16.73;;;;;;;2.56;100.00;99887.86;1762831;81;21471;-75
2022/12/25 05:12:12;;;;;;;22.60;16.97;;;;;;;2.52;100.00;99887.43;1774300;79;22262;-76
2022/12/25 05:14:40;;;;;;;20.20;15.58;;;;;;;2.44;100.00;99894.22;1775057;79;21011;-76
2022/12/25 05:17:06;;;;;;;23.75;17.07;;;;;;;2.44;100.00;99894.22;1808272;79;21776;-75
2022/12/25 05:19:33;;;;;;;20.52;16.82;;;;;;;2.46;100.00;99900.64;1808215;79;21521;-76
2022/12/25 05:21:59;;;;;;;17.77;13.22;;;;;;;2.49;100.00;99899.77;1804280;78;21544;-75
2022/12/25 05:24:26;;;;;;;18.87;15.28;;;;;;;2.52;100.00;99902.03;1802674;79;21556;-74
2022/12/25 05:26:53;;;;;;;17.45;14.47;;;;;;;2.47;100.00;99904.44;1807629;79;21513;-76
2022/12/25 05:29:20;;;;;;;16.02;12.58;;;;;;;2.36;100.00;99902.30;1781988;79;21180;-76
2022/12/25 05:31:46;;;;;;;17.32;13.20;;;;;;;2.31;100.00;99905.20;1780109;78;22320;-76
2022/12/25 05:34:13;;;;;;;14.83;12.82;;;;;;;2.28;100.00;99906.92;1780031;79;21563;-74
2022/12/25 05:36:39;;;;;;;16.35;12.53;;;;;;;2.30;100.00;99908.39;1799857;79;21039;-74
2022/12/25 05:39:06;;;;;;;14.18;12.70;;;;;;;2.31;100.00;99910.52;1796366;79;21047;-75
2022/12/25 05:41:33;;;;;;;13.75;11.18;;;;;;;2.33;100.00;99916.47;1807487;79;21512;-74
2022/12/25 05:43:59;;;;;;;16.37;13.03;;;;;;;2.32;100.00;99921.45;1799637;79;20964;-74
2022/12/25 05:46:29;;;;;;;14.55;11.43;;;;;;;2.29;100.00;99924.00;1807952;79;21015;-75
2022/12/25 05:48:56;;;;;;;13.98;11.28;;;;;;;2.23;100.00;99927.91;1807397;79;20913;-73
2022/12/25 05:51:22;;;;;;;13.62;11.05;;;;;;;2.15;100.00;99928.87;1801436;79;21047;-73
2022/12/25 05:53:49;;;;;;;12.95;11.40;;;;;;;2.05;100.00;99939.80;1766271;79;21059;-73
2022/12/25 05:56:15;;;;;;;14.83;11.18;;;;;;;1.98;100.00;99936.73;1776006;80;21063;-79
2022/12/25 05:58:41;;;;;;;12.75;10.65;;;;;;;1.96;100.00;99943.58;1776224;79;21092;-73
2022/12/25 06:01:14;;;;;;;12.40;11.10;;;;;;;1.99;100.00;99945.84;1779263;79;21532;-74
2022/12/25 06:03:40;;;;;;;13.48;11.22;;;;;;;1.94;100.00;99949.56;1785747;78;21383;-71
2022/12/25 06:06:07;;;;;;;14.35;11.30;;;;;;;1.92;100.00;99946.26;1796480;79;21172;-71
2022/12/25 06:08:34;;;;;;;13.40;11.25;;;;;;;1.91;100.00;99947.30;1745659;80;20996;-72
2022/12/25 06:11:05;;;;;;;12.58;11.28;;;;;;;1.89;100.00;99953.78;1783158;79;20956;-72
2022/12/25 06:13:32;;;;;;;13.58;11.05;;;;;;;1.96;100.00;99956.02;1771301;79;21067;-74
2022/12/25 06:15:59;;;;;;;11.55;10.35;;;;;;;2.00;100.00;99954.13;1788877;79;21024;-73
2022/12/25 06:18:25;;;;;;;10.63;9.53;;;;;;;1.97;100.00;99954.48;1775924;80;21251;-74
2022/12/25 06:20:52;;;;;;;14.30;12.45;;;;;;;1.94;100.00;99963.32;1775837;80;20995;-74
2022/12/25 06:23:18;;;;;;;12.40;11.15;;;;;;;1.96;100.00;99960.81;1793755;78;20967;-75
2022/12/25 06:25:45;;;;;;;12.85;11.55;;;;;;;2.02;100.00;99964.02;1778207;78;20967;-76
2022/12/25 06:28:12;;;;;;;12.95;10.72;;;;;;;2.07;100.00;99975.39;1796243;79;20980;-72
2022/12/25 06:30:38;;;;;;;11.93;10.72;;;;;;;2.00;100.00;99974.02;1807909;79;21126;-72
2022/12/25 06:33:05;;;;;;;15.32;10.95;;;;;;;1.98;100.00;99985.80;1802849;78;20999;-77
2022/12/25 06:35:32;;;;;;;12.25;9.83;;;;;;;1.97;100.00;99984.98;1808040;78;21334;-75
2022/12/25 06:37:58;;;;;;;13.50;11.80;;;;;;;2.00;100.00;99976.67;1807902;79;20956;-77
2022/12/25 06:40:25;;;;;;;11.65;10.45;;;;;;;1.99;100.00;99980.83;1788593;78;21086;-77
2022/12/25 06:42:53;;;;;;;13.62;12.25;;;;;;;1.98;100.00;99983.15;1800153;79;21136;-77
2022/12/25 06:45:21;;;;;;;11.83;10.60;;;;;;;2.02;100.00;99983.09;1806009;79;21019;-74
2022/12/25 06:47:48;;;;;;;13.55;12.10;;;;;;;1.97;100.00;99981.00;1808122;79;20991;-76
2022/12/25 06:50:14;;;;;;;11.22;10.15;;;;;;;1.93;100.00;99986.87;1802967;78;21063;-77
2022/12/25 06:52:41;;;;;;;12.65;10.85;;;;;;;1.87;100.00;99984.98;1796506;78;21026;-78
2022/12/25 06:55:09;;;;;;;10.05;8.78;;;;;;;1.87;100.00;99984.98;1785482;79;21177;-76
2022/12/25 06:57:35;;;;;;;11.73;10.48;;;;;;;1.89;100.00;99992.23;1754607;79;21076;-79
2022/12/25 07:00:02;;;;;;;9.90;8.90;;;;;;;1.88;100.00;99983.45;1799654;79;20948;-78
2022/12/25 07:02:29;;;;;;;13.15;10.08;;;;;;;1.85;100.00;99990.47;1794870;78;21035;-80
2022/12/25 07:04:57;;;;;;;10.40;9.35;;;;;;;1.82;100.00;99999.30;1772399;79;21102;-78
2022/12/25 07:07:23;;;;;;;11.12;9.20;;;;;;;1.77;100.00;100006.48;1817343;78;21174;-79
2022/12/25 07:09:49;;;;;;;10.68;9.58;;;;;;;1.77;100.00;100003.84;1799180;79;20971;-79
2022/12/25 07:12:26;;;;;;;13.65;12.18;;;;;;;1.79;100.00;100009.76;1799528;79;20987;-74
2022/12/25 07:14:53;;;;;;;12.35;9.98;;;;;;;1.85;100.00;100018.81;1799754;79;20994;-74
2022/12/25 07:17:20;;;;;;;10.70;9.60;;;;;;;1.79;100.00;100015.06;1795360;77;21056;-74
2022/12/25 07:19:47;;;;;;;9.88;8.93;;;;;;;1.77;100.00;100021.08;1808084;79;21157;-74
2022/12/25 07:22:14;;;;;;;9.58;8.68;;;;;;;1.80;100.00;100024.67;1811130;78;20927;-73
2022/12/25 07:24:41;;;;;;;12.98;11.10;;;;;;;1.82;100.00;100032.45;1798977;78;20960;-74
2022/12/25 07:27:07;;;;;;;12.85;11.35;;;;;;;1.86;100.00;100041.17;1808744;78;21046;-74
2022/12/25 07:29:34;;;;;;;14.13;12.63;;;;;;;1.82;100.00;100039.91;1825164;78;21008;-74
2022/12/25 07:32:00;;;;;;;10.93;9.83;;;;;;;1.80;100.00;100039.25;1825128;78;21095;-73
2022/12/25 07:34:27;;;;;;;10.72;9.48;;;;;;;1.86;100.00;100043.83;1822751;78;21071;-75
2022/12/25 07:36:54;;;;;;;11.97;10.55;;;;;;;1.88;100.00;100047.09;1824598;78;21143;-73
2022/12/25 07:39:20;;;;;;;14.00;11.43;;;;;;;1.89;100.00;100052.73;1814183;78;21541;-78
2022/12/25 07:41:47;;;;;;;12.20;10.65;;;;;;;1.87;100.00;100061.36;1805757;78;21101;-74
2022/12/25 07:44:15;;;;;;;11.08;9.70;;;;;;;1.87;100.00;100053.94;1817007;78;21029;-75
2022/12/25 07:46:41;;;;;;;12.58;11.38;;;;;;;1.94;100.00;100053.00;1811966;78;21020;-73
2022/12/25 07:49:09;;;;;;;12.15;9.70;;;;;;;2.01;100.00;100053.09;1815878;78;20963;-74
2022/12/25 07:51:36;;;;;;;12.78;9.58;;;;;;;2.05;100.00;100056.52;1813760;78;21004;-71
2022/12/25 07:54:03;;;;;;;10.65;8.83;;;;;;;2.10;100.00;100063.91;1824498;78;21536;-75
2022/12/25 07:56:31;;;;;;;10.68;8.83;;;;;;;2.13;100.00;100060.87;1815000;78;21809;-77
2022/12/25 07:58:58;;;;;;;9.35;8.45;;;;;;;2.16;100.00;100066.63;1807350;78;20971;-73
2022/12/25 08:01:26;;;;;;;9.98;8.98;;;;;;;2.15;100.00;100070.80;1826002;78;20993;-72
2022/12/25 08:03:57;;;;;;;13.75;9.60;;;;;;;2.15;100.00;100075.61;1817382;78;20971;-74
2022/12/25 08:06:28;;;;;;;9.88;8.88;;;;;;;2.17;100.00;100080.21;1825155;78;21046;-74
2022/12/25 08:08:56;;;;;;;10.20;8.50;;;;;;;2.22;100.00;100068.22;1807864;78;21092;-73
2022/12/25 08:11:23;;;;;;;10.63;9.55;;;;;;;2.22;100.00;100067.71;1804087;78;20983;-73
2022/12/25 08:13:50;;;;;;;11.65;9.55;;;;;;;2.18;100.00;100078.39;1814002;78;20927;-77
2022/12/25 08:16:16;;;;;;;11.05;8.98;;;;;;;2.16;100.00;100077.23;1807772;78;21040;-74
2022/12/25 08:18:43;;;;;;;11.08;8.48;;;;;;;2.16;100.00;100083.05;1825288;78;20936;-76
2022/12/25 08:21:12;;;;;;;9.53;8.13;;;;;;;2.15;100.00;100083.58;1821439;78;21781;-74
2022/12/25 08:23:41;;;;;;;11.10;10.00;;;;;;;2.15;100.00;100083.58;1807752;78;20932;-73
2022/12/25 08:26:09;;;;;;;11.95;10.50;;;;;;;2.18;100.00;100081.04;1788657;79;21031;-73
2022/12/25 08:28:36;;;;;;;10.28;8.40;;;;;;;2.25;100.00;100074.50;1780197;79;21044;-73
2022/12/25 08:31:12;;;;;;;12.50;9.45;;;;;;;2.32;100.00;100079.36;1767306;79;21075;-71
2022/12/25 08:33:40;;;;;;;12.90;10.38;;;;;;;2.31;100.00;100077.20;1778712;79;21456;-70
2022/12/25 08:36:09;;;;;;;14.93;11.08;;;;;;;2.26;100.00;100082.75;1807902;79;21019;-70
2022/12/25 08:38:35;;;;;;;12.35;11.12;;;;;;;2.28;100.00;100092.69;1808101;79;21536;-77
2022/12/25 08:41:02;;;;;;;11.05;9.93;;;;;;;2.30;100.00;100092.01;1795782;78;21051;-77
2022/12/25 08:43:30;;;;;;;11.55;10.13;;;;;;;2.24;100.00;100092.24;1800991;79;20992;-77
2022/12/25 08:45:57;;;;;;;10.48;9.35;;;;;;;2.26;100.00;100103.98;1806157;77;21612;-70
2022/12/25 08:48:23;;;;;;;11.40;9.08;;;;;;;2.32;100.00;100096.10;1782253;78;21553;-73
2022/12/25 08:50:50;;;;;;;11.40;9.50;;;;;;;2.41;100.00;100099.46;1787405;78;21044;-76
2022/12/25 08:53:19;;;;;;;10.08;8.98;;;;;;;2.46;100.00;100101.05;1781421;79;21490;-76
2022/12/25 08:55:46;;;;;;;10.05;9.05;;;;;;;2.41;100.00;100096.81;1744062;80;21016;-75
2022/12/25 08:58:17;;;;;;;11.40;9.18;;;;;;;2.38;100.00;100102.50;1803878;79;21092;-76
2022/12/25 09:00:41;;;;;;;13.08;9.70;;;;;;;2.34;100.00;100108.70;1801300;79;21493;-78
2022/12/25 09:03:08;;;;;;;10.70;8.83;;;;;;;2.37;100.00;100108.31;1793761;78;21044;-78
2022/12/25 09:05:35;;;;;;;9.40;8.40;;;;;;;2.41;100.00;100110.08;1805197;79;21028;-76
2022/12/25 09:08:03;;;;;;;14.18;10.25;;;;;;;2.42;100.00;100108.58;1801548;78;21095;-75
2022/12/25 09:10:29;;;;;;;11.35;10.15;;;;;;;2.42;100.00;100105.92;1780727;78;21790;-76
2022/12/25 09:12:56;;;;;;;12.05;9.23;;;;;;;2.45;100.00;100111.34;1781514;79;21076;-76
2022/12/25 09:15:23;;;;;;;16.55;13.35;;;;;;;2.43;100.00;100115.54;1792223;79;21518;-78
2022/12/25 09:17:49;;;;;;;10.43;9.33;;;;;;;2.42;100.00;100111.23;1794420;79;22311;-77
2022/12/25 09:20:16;;;;;;;9.90;8.90;;;;;;;2.39;100.00;100114.27;1800467;79;20989;-77
2022/12/25 09:22:42;;;;;;;9.90;8.88;;;;;;;2.39;100.00;100115.59;1806833;78;21093;-82
2022/12/25 09:25:13;;;;;;;9.45;7.95;;;;;;;2.41;100.00;100116.22;1822463;78;20917;-73
2022/12/25 09:27:39;;;;;;;9.73;8.30;;;;;;;2.43;100.00;100119.52;1816415;78;20971;-79
2022/12/25 09:30:08;;;;;;;10.13;8.25;;;;;;;2.46;100.00;100115.66;1740027;81;21063;-84
2022/12/25 09:32:35;;;;;;;11.63;8.50;;;;;;;2.48;100.00;100126.42;1796635;79;21812;-80
2022/12/25 09:35:01;;;;;;;11.43;9.60;;;;;;;2.48;100.00;100117.63;1763253;81;21148;-84
2022/12/25 09:37:28;;;;;;;13.05;10.45;;;;;;;2.51;100.00;100123.88;1788718;79;20989;-80
2022/12/25 09:39:55;;;;;;;12.03;9.58;;;;;;;2.54;100.00;100120.34;1796856;79;20898;-82
2022/12/25 09:42:24;;;;;;;11.10;9.78;;;;;;;2.58;100.00;100128.27;1790389;79;21016;-84
2022/12/25 09:45:16;;;;;;;9.58;8.38;;;;;;;2.61;100.00;100129.72;1782147;79;21029;-82
2022/12/25 09:47:43;;;;;;;13.43;8.48;;;;;;;2.62;100.00;100134.84;1790362;79;21562;-75
2022/12/25 09:50:23;;;;;;;10.93;9.83;;;;;;;2.62;100.00;100132.19;1754385;80;20964;-78
2022/12/25 09:53:10;;;;;;;13.48;10.08;;;;;;;2.60;100.00;100137.36;1789290;79;20953;-70
2022/12/25 09:55:46;;;;;;;13.25;10.35;;;;;;;2.61;100.00;100137.69;1781775;78;21081;-77
2022/12/25 09:58:13;;;;;;;12.70;8.83;;;;;;;2.64;100.00;100139.45;1782352;79;21056;-76
2022/12/25 10:00:42;;;;;;;12.75;11.12;;;;;;;2.69;100.00;100149.51;1779325;79;21099;-74
2022/12/25 10:03:25;;;;;;;10.50;8.73;;;;;;;2.69;100.00;100146.02;1793343;79;20995;-74
2022/12/25 10:06:10;;;;;;;10.25;8.88;;;;;;;2.70;100.00;100145.02;1800359;79;21067;-78
2022/12/25 10:09:00;;;;;;;10.50;9.35;;;;;;;2.77;100.00;100150.74;1794009;79;20974;-76
2022/12/25 10:11:38;;;;;;;10.95;9.85;;;;;;;2.92;100.00;100148.03;1789687;79;21012;-78
2022/12/25 10:14:25;;;;;;;12.35;10.78;;;;;;;3.05;100.00;100149.48;1791071;79;21093;-75
2022/12/25 10:17:26;;;;;;;11.78;9.18;;;;;;;3.05;100.00;100149.48;1799476;79;21066;-78
2022/12/25 10:20:19;;;;;;;10.05;9.05;;;;;;;3.06;100.00;100149.30;1766506;79;21043;-78
2022/12/25 10:22:56;;;;;;;11.80;9.58;;;;;;;3.07;100.00;100150.92;1777991;79;26617;-71
2022/12/25 10:25:23;;;;;;;10.63;8.78;;;;;;;3.05;100.00;100154.80;1805621;79;21535;-70
2022/12/25 10:27:59;;;;;;;12.25;9.88;;;;;;;3.02;100.00;100153.33;1799581;79;22212;-70
2022/12/25 10:30:27;;;;;;;13.83;8.93;;;;;;;3.00;100.00;100156.70;1790399;79;21003;-79
2022/12/25 10:32:58;;;;;;;8.63;7.67;;;;;;;2.97;100.00;100154.94;1804638;78;21520;-82
2022/12/25 10:35:28;;;;;;;8.13;6.78;;;;;;;2.96;100.00;100151.95;1796958;79;20976;-77
2022/12/25 10:38:04;;;;;;;13.68;9.83;;;;;;;2.97;100.00;100149.09;1801709;79;20948;-74
2022/12/25 10:41:14;;;;;;;11.55;8.98;;;;;;;3.01;100.00;100153.54;1770560;79;21464;-75
2022/12/25 10:43:50;;;;;;;10.58;7.58;;;;;;;2.98;100.00;100150.73;1754962;80;21065;-76
2022/12/25 10:46:18;;;;;;;13.00;10.48;;;;;;;3.01;100.00;100147.72;1781522;79;20931;-76
2022/12/25 10:48:58;;;;;;;13.40;8.20;;;;;;;2.99;100.00;100153.72;1789332;79;20993;-78
2022/12/25 10:51:36;;;;;;;15.95;11.50;;;;;;;2.99;100.00;100156.88;1786378;79;20917;-78
2022/12/25 10:54:27;;;;;;;14.23;9.65;;;;;;;3.02;100.00;100159.97;1809715;79;21136;-83
2022/12/25 10:57:11;;;;;;;11.45;9.03;;;;;;;3.04;100.00;100155.30;1805651;79;21389;-79
2022/12/25 10:59:43;;;;;;;10.68;8.53;;;;;;;3.05;100.00;100158.78;1796505;79;21040;-82
2022/12/25 11:02:17;;;;;;;12.53;8.60;;;;;;;2.99;100.00;100158.20;1794944;79;21060;-78
2022/12/25 11:04:44;;;;;;;12.30;9.48;;;;;;;3.00;100.00;100167.33;1785823;79;22325;-84
2022/12/25 11:07:22;;;;;;;12.00;8.68;;;;;;;3.05;100.00;100180.87;1806552;79;21627;-78
2022/12/25 11:09:56;;;;;;;17.67;13.58;;;;;;;3.05;100.00;100178.71;1796093;78;21040;-78
2022/12/25 11:12:32;;;;;;;8.33;7.30;;;;;;;3.07;100.00;100178.83;1791548;79;21042;-79
2022/12/25 11:15:03;;;;;;;9.55;7.80;;;;;;;3.07;100.00;100185.97;1804699;79;21039;-79
2022/12/25 11:17:29;;;;;;;11.65;8.68;;;;;;;3.09;100.00;100191.94;1781672;77;21090;-82
2022/12/25 11:19:59;;;;;;;12.40;9.43;;;;;;;3.08;100.00;100192.94;1790051;79;21847;-79
2022/12/25 11:22:26;;;;;;;12.00;9.40;;;;;;;3.10;100.00;100198.91;1791868;78;20964;-78
2022/12/25 11:24:52;;;;;;;14.65;9.60;;;;;;;3.14;100.00;100199.34;1790559;78;20959;-76
2022/12/25 11:27:29;;;;;;;11.50;9.68;;;;;;;3.13;100.00;100196.36;1799953;79;21315;-81
2022/12/25 11:29:58;;;;;;;15.88;10.40;;;;;;;3.12;100.00;100205.36;1787052;79;21492;-78
2022/12/25 11:32:42;;;;;;;15.00;11.08;;;;;;;3.06;100.00;100202.45;1799436;79;21301;-75
2022/12/25 11:35:16;;;;;;;17.02;11.68;;;;;;;3.05;100.00;100199.47;1806299;79;21514;-76
2022/12/25 11:37:48;;;;;;;12.80;10.13;;;;;;;3.10;100.00;100206.87;1797945;79;20967;-79
2022/12/25 11:40:18;;;;;;;16.60;12.73;;;;;;;3.14;100.00;100205.98;1806140;79;21548;-81
2022/12/25 11:42:49;;;;;;;18.07;12.55;;;;;;;3.15;100.00;100205.80;1799916;79;21008;-78
2022/12/25 11:45:27;;;;;;;15.68;12.25;;;;;;;3.18;100.00;100204.08;1784705;79;21051;-77
2022/12/25 11:48:10;;;;;;;15.60;11.30;;;;;;;3.24;100.00;100205.16;1770268;79;21022;-80
2022/12/25 11:50:58;;;;;;;16.48;12.15;;;;;;;3.29;100.00;100207.58;1793414;79;21529;-76
2022/12/25 11:53:37;;;;;;;19.32;12.68;;;;;;;3.32;100.00;100207.69;1774546;79;21020;-74
2022/12/25 11:56:14;;;;;;;16.23;11.15;;;;;;;3.30;100.00;100211.89;1804663;78;20975;-74
2022/12/25 11:58:46;;;;;;;17.80;11.33;;;;;;;3.24;100.00;100211.30;1783264;79;21099;-78
2022/12/25 12:01:40;;;;;;;25.90;12.60;;;;;;;3.16;100.00;100214.59;1777834;79;20943;-76
2022/12/25 12:04:34;;;;;;;14.80;10.75;;;;;;;3.15;100.00;100220.92;1796699;78;20959;-74
2022/12/25 12:07:34;;;;;;;15.05;10.45;;;;;;;3.17;100.00;100219.70;1799569;79;21019;-85
2022/12/25 12:10:22;;;;;;;13.13;11.12;;;;;;;3.18;100.00;100224.02;1747048;79;21019;-87
2022/12/25 12:13:18;;;;;;;16.62;13.05;;;;;;;3.19;100.00;100232.31;1739588;79;21042;-89
2022/12/25 12:15:47;;;;;;;18.45;12.47;;;;;;;3.18;100.00;100232.49;1720575;81;21025;-85
2022/12/25 12:18:32;;;;;;;17.30;12.10;;;;;;;3.18;100.00;100229.84;1757384;79;21087;-78
2022/12/25 12:21:21;;;;;;;15.40;11.15;;;;;;;3.16;100.00;100235.86;1746581;81;21025;-81
2022/12/25 12:23:58;;;;;;;17.23;12.13;;;;;;;3.15;100.00;100227.06;1727747;81;21594;-77
2022/12/25 12:26:28;;;;;;;15.75;12.23;;;;;;;3.11;100.00;100243.07;1720438;81;21167;-85
2022/12/25 12:28:58;;;;;;;16.05;10.65;;;;;;;3.11;100.00;100245.73;1750069;81;21162;-79
2022/12/25 12:31:31;;;;;;;17.95;12.00;;;;;;;3.11;100.00;100252.88;1775476;79;21495;-82
2022/12/25 12:34:00;;;;;;;14.98;10.43;;;;;;;3.09;100.00;100257.04;1765197;79;20991;-80
2022/12/25 12:36:27;;;;;;;17.57;12.65;;;;;;;3.07;100.00;100261.20;1798504;79;21010;-85
2022/12/25 12:38:55;;;;;;;17.62;12.80;;;;;;;3.05;100.00;100265.08;1763939;79;21119;-83
2022/12/25 12:41:25;;;;;;;24.90;13.22;;;;;;;3.04;100.00;100267.41;1785915;79;20932;-86
2022/12/25 12:43:59;;;;;;;13.88;11.18;;;;;;;3.07;100.00;100268.34;1753168;81;20968;-83
2022/12/25 12:46:32;;;;;;;14.20;11.03;;;;;;;3.08;100.00;100276.64;1702839;81;21047;-84
2022/12/25 12:49:24;;;;;;;12.63;10.65;;;;;;;3.11;100.00;100279.45;1805484;79;21047;-84
2022/12/25 12:52:04;;;;;;;13.80;10.28;;;;;;;3.05;100.00;100273.05;1798747;78;21147;-90
2022/12/25 12:54:33;;;;;;;18.92;14.00;;;;;;;3.04;100.00;100271.39;1763548;80;20958;-87
2022/12/25 12:57:05;;;;;;;16.93;12.40;;;;;;;3.00;100.00;100264.81;1794397;79;21105;-86
2022/12/25 12:59:43;;;;;;;16.82;12.30;;;;;;;3.06;100.00;100272.87;1794569;79;21033;-87
2022/12/25 13:02:57;;;;;;;19.82;12.35;;;;;;;3.06;100.00;100275.52;1791553;79;21679;-80
2022/12/25 13:06:04;;;;;;;16.93;12.30;;;;;;;3.05;100.00;100276.53;1800579;79;21067;-77
2022/12/25 13:08:52;;;;;;;17.05;12.37;;;;;;;2.99;100.00;100293.70;1776344;79;20949;-80
2022/12/25 13:11:22;;;;;;;18.75;13.15;;;;;;;2.99;100.00;100293.70;1789700;79;21525;-80
2022/12/25 13:13:51;;;;;;;13.85;11.28;;;;;;;2.92;100.00;100295.48;1801319;79;21028;-79
2022/12/25 13:16:34;;;;;;;14.55;10.43;;;;;;;2.90;100.00;100294.83;1800382;79;21017;-79
2022/12/25 13:19:22;;;;;;;12.80;10.03;;;;;;;2.93;100.00;100305.07;1777940;79;21155;-77
2022/12/25 13:21:59;;;;;;;10.60;8.83;;;;;;;2.96;100.00;100298.08;1783416;79;20964;-79